createdAt,value
2023-12-27T00:00:14.496Z,975.27
2023-12-27T00:05:26.616Z,975.32
2023-12-27T00:10:38.583Z,975.32
2023-12-27T00:15:50.629Z,975.15
2023-12-27T00:21:02.614Z,975.29
2023-12-27T00:26:14.589Z,975.32
2023-12-27T00:31:26.786Z,975.24
2023-12-27T00:36:38.814Z,975.1
2023-12-27T00:41:50.829Z,975.02
2023-12-27T00:47:02.848Z,974.98
2023-12-27T00:52:14.853Z,974.96
2023-12-27T00:57:26.863Z,974.95
2023-12-27T01:02:38.936Z,975.19
2023-12-27T01:07:51.135Z,975.18
2023-12-27T01:13:03.110Z,975
2023-12-27T01:18:15.451Z,975.03
2023-12-27T01:23:27.741Z,975.12
2023-12-27T01:28:39.847Z,975.03
2023-12-27T01:33:52.038Z,975.12
2023-12-27T01:39:04.163Z,974.93
2023-12-27T01:44:16.830Z,975
2023-12-27T01:49:28.995Z,974.92
2023-12-27T01:54:41.178Z,974.97
2023-12-27T01:59:53.771Z,975.02
2023-12-27T02:05:05.824Z,975.01
2023-12-27T02:10:17.796Z,975.12
2023-12-27T02:15:31.175Z,975.1
2023-12-27T02:20:43.216Z,974.92
2023-12-27T02:25:55.375Z,974.75
2023-12-27T02:31:07.618Z,974.8
2023-12-27T02:36:19.851Z,974.92
2023-12-27T02:41:31.820Z,974.8
2023-12-27T02:46:43.826Z,974.85
2023-12-27T02:51:55.797Z,974.73
2023-12-27T02:57:08.178Z,974.66
2023-12-27T03:02:20.313Z,974.62
2023-12-27T03:07:33.313Z,974.62
2023-12-27T03:12:45.281Z,974.5
2023-12-27T03:17:57.606Z,974.45
2023-12-27T03:23:10.046Z,974.5
2023-12-27T03:28:22.012Z,974.49
2023-12-27T03:33:34.342Z,974.37
2023-12-27T03:38:46.704Z,974.42
2023-12-27T03:43:58.855Z,974.44
2023-12-27T03:49:10.966Z,974.43
2023-12-27T03:54:23.231Z,974.47
2023-12-27T03:59:35.345Z,974.49
2023-12-27T04:04:47.463Z,974.41
2023-12-27T04:09:59.448Z,974.24
2023-12-27T04:15:11.571Z,974.32
2023-12-27T04:20:23.691Z,974.22
2023-12-27T04:25:36.311Z,974.24
2023-12-27T04:30:48.477Z,974.06
2023-12-27T04:36:00.817Z,974.02
2023-12-27T04:41:12.978Z,974.05
2023-12-27T04:46:24.989Z,974.03
2023-12-27T04:51:36.989Z,973.99
2023-12-27T04:56:49.150Z,974.11
2023-12-27T05:02:01.237Z,974.06
2023-12-27T05:07:13.357Z,974.19
2023-12-27T05:12:25.424Z,974.11
2023-12-27T05:17:37.526Z,974.1
2023-12-27T05:22:53.081Z,974.16
2023-12-27T05:28:05.321Z,974.11
2023-12-27T05:33:17.437Z,974.06
2023-12-27T05:38:29.524Z,974.01
2023-12-27T05:43:41.632Z,974.03
2023-12-27T05:48:53.734Z,973.98
2023-12-27T05:54:05.922Z,973.98
2023-12-27T05:59:17.977Z,974.04
2023-12-27T06:04:30.065Z,973.98
2023-12-27T06:09:42.035Z,973.85
2023-12-27T06:14:54.137Z,973.94
2023-12-27T06:20:06.223Z,973.9
2023-12-27T06:25:18.264Z,973.78
2023-12-27T06:30:30.297Z,973.56
2023-12-27T06:35:42.307Z,973.71
2023-12-27T06:40:54.390Z,973.62
2023-12-27T06:51:26.502Z,973.63
2023-12-27T06:56:38.717Z,973.75
2023-12-27T07:01:50.712Z,973.76
2023-12-27T07:07:02.849Z,973.84
2023-12-27T07:12:14.986Z,973.95
2023-12-27T07:17:27.145Z,973.88
2023-12-27T07:22:39.128Z,973.74
2023-12-27T07:27:51.089Z,973.84
2023-12-27T07:33:03.117Z,973.71
2023-12-27T07:38:15.278Z,973.78
2023-12-27T07:43:27.400Z,973.8
2023-12-27T07:48:39.583Z,973.83
2023-12-27T07:53:51.900Z,973.82
2023-12-27T08:04:24.923Z,973.92
2023-12-27T08:09:37.020Z,973.87
2023-12-27T08:14:49.191Z,973.97
2023-12-27T08:20:01.433Z,974
2023-12-27T08:30:33.843Z,973.96
2023-12-27T08:35:46.014Z,974.01
2023-12-27T08:40:58.112Z,974.05
2023-12-27T08:46:10.093Z,974
2023-12-27T08:51:22.192Z,973.8
2023-12-27T08:56:35.206Z,973.65
2023-12-27T09:01:48.835Z,973.53
2023-12-27T09:07:00.850Z,973.42
2023-12-27T09:12:13.056Z,973.48
2023-12-27T09:17:25.039Z,973.54
2023-12-27T09:22:37.143Z,973.5
2023-12-27T09:27:49.305Z,973.48
2023-12-27T09:33:01.538Z,973.38
2023-12-27T09:38:13.691Z,973.19
2023-12-27T09:43:25.673Z,973.29
2023-12-27T09:48:38.046Z,973.34
2023-12-27T09:53:50.188Z,973.2
2023-12-27T09:59:02.184Z,973.19
2023-12-27T10:04:14.161Z,973.19
2023-12-27T10:09:26.204Z,973.12
2023-12-27T10:14:38.202Z,973
2023-12-27T10:19:50.258Z,972.72
2023-12-27T10:25:02.304Z,972.54
2023-12-27T10:30:14.526Z,972.42
2023-12-27T10:35:26.676Z,972.41
2023-12-27T10:40:38.852Z,972.32
2023-12-27T10:45:51.497Z,972.27
2023-12-27T10:51:04.035Z,972.1
2023-12-27T10:56:16.011Z,972.07
2023-12-27T11:01:28.077Z,972.07
2023-12-27T11:06:40.364Z,971.84
2023-12-27T11:11:52.391Z,971.61
2023-12-27T11:17:04.367Z,971.6
2023-12-27T11:22:16.355Z,971.53
2023-12-27T11:27:30.992Z,971.46
2023-12-27T11:32:43.242Z,971.41
2023-12-27T11:37:55.439Z,971.15
2023-12-27T11:43:07.462Z,971.28
2023-12-27T11:48:19.558Z,971.28
2023-12-27T11:53:31.699Z,971.04
2023-12-27T11:58:43.668Z,971.03
2023-12-27T12:03:55.949Z,970.94
2023-12-27T12:09:08.678Z,970.89
2023-12-27T12:14:20.774Z,970.84
2023-12-27T12:19:32.892Z,970.82
2023-12-27T12:24:45.468Z,970.75
2023-12-27T12:29:57.499Z,970.66
2023-12-27T12:35:09.480Z,970.59
2023-12-27T12:40:22.225Z,970.57
2023-12-27T12:45:34.346Z,970.48
2023-12-27T12:50:46.310Z,970.46
2023-12-27T13:01:18.715Z,970.27
2023-12-27T13:06:30.746Z,970.2
2023-12-27T13:11:42.735Z,970.21
2023-12-27T13:16:55.396Z,970.19
2023-12-27T13:22:07.591Z,970.22
2023-12-27T13:27:19.616Z,970.13
2023-12-27T13:32:31.833Z,970.18
2023-12-27T13:37:43.838Z,970.16
2023-12-27T13:42:57.359Z,970.02
2023-12-27T13:48:09.769Z,970.07
2023-12-27T13:53:21.961Z,969.99
2023-12-27T13:58:33.920Z,970.02
2023-12-27T14:03:46.102Z,969.98
2023-12-27T14:08:58.122Z,969.91
2023-12-27T14:14:10.197Z,969.99
2023-12-27T14:19:22.400Z,969.96
2023-12-27T14:24:34.485Z,969.96
2023-12-27T14:29:46.476Z,969.9
2023-12-27T14:34:58.513Z,969.97
2023-12-27T14:40:10.508Z,969.98
2023-12-27T14:45:22.541Z,969.84
2023-12-27T14:50:34.548Z,969.84
2023-12-27T14:55:46.553Z,969.85
2023-12-27T15:00:58.579Z,969.84
2023-12-27T15:06:11.228Z,969.85
2023-12-27T15:11:24.260Z,969.93
2023-12-27T15:16:36.228Z,969.9
2023-12-27T15:21:48.933Z,969.83
2023-12-27T15:27:01.643Z,969.92
2023-12-27T15:32:13.609Z,969.89
2023-12-27T15:37:25.588Z,969.98
2023-12-27T15:42:38.190Z,970.11
2023-12-27T15:47:50.345Z,970.01
2023-12-27T15:53:02.382Z,969.93
2023-12-27T15:58:14.652Z,969.82
2023-12-27T16:03:26.780Z,969.86
2023-12-27T16:08:38.884Z,969.88
2023-12-27T16:13:51.100Z,969.91
2023-12-27T16:19:03.276Z,969.83
2023-12-27T16:24:15.382Z,969.93
2023-12-27T16:29:27.357Z,969.82
2023-12-27T16:34:39.407Z,969.78
2023-12-27T16:39:51.388Z,969.82
2023-12-27T16:45:03.358Z,969.86
2023-12-27T16:50:15.323Z,969.82
2023-12-27T16:55:27.308Z,969.71
2023-12-27T17:00:39.366Z,969.62
2023-12-27T17:05:51.429Z,969.69
2023-12-27T17:11:03.407Z,969.8
2023-12-27T17:16:15.510Z,969.8
2023-12-27T17:21:27.595Z,969.88
2023-12-27T17:26:39.680Z,969.73
2023-12-27T17:31:52.279Z,969.81
2023-12-27T17:37:04.378Z,969.85
2023-12-27T17:42:16.388Z,969.87
2023-12-27T17:47:28.556Z,969.88
2023-12-27T17:52:40.547Z,969.83
2023-12-27T17:57:52.575Z,969.73
2023-12-27T18:03:04.749Z,969.77
2023-12-27T18:08:16.964Z,969.72
2023-12-27T18:13:28.927Z,969.79
2023-12-27T18:18:40.998Z,969.68
2023-12-27T18:23:53.298Z,969.75
2023-12-27T18:29:05.267Z,969.76
2023-12-27T18:34:19.407Z,969.78
2023-12-27T18:39:32.010Z,969.7
2023-12-27T18:44:44.399Z,969.89
2023-12-27T18:49:56.587Z,969.69
2023-12-27T18:55:08.659Z,969.6
2023-12-27T19:00:20.845Z,969.49
2023-12-27T19:05:32.988Z,969.53
2023-12-27T19:10:44.971Z,969.57
2023-12-27T19:15:56.990Z,969.59
2023-12-27T19:21:09.093Z,969.63
2023-12-27T19:26:21.095Z,969.64
2023-12-27T19:31:33.332Z,969.7
2023-12-27T19:36:45.748Z,969.76
2023-12-27T19:41:57.826Z,969.82
2023-12-27T19:47:09.811Z,969.92
2023-12-27T19:52:21.777Z,969.89
2023-12-27T19:57:33.748Z,969.91
2023-12-27T20:02:45.736Z,969.83
2023-12-27T20:07:57.962Z,969.9
2023-12-27T20:13:10.155Z,969.85
2023-12-27T20:18:22.227Z,970.05
2023-12-27T20:23:38.518Z,970.03
2023-12-27T20:28:50.508Z,970.11
2023-12-27T20:34:02.570Z,970.08
2023-12-27T20:39:14.609Z,970.11
2023-12-27T20:44:26.599Z,970.22
2023-12-27T20:49:40.315Z,970.26
2023-12-27T20:54:52.612Z,970.22
2023-12-27T21:00:04.778Z,970.28
2023-12-27T21:05:16.991Z,970.18
2023-12-27T21:10:29.204Z,970.21
2023-12-27T21:15:41.923Z,970.19
2023-12-27T21:20:53.925Z,970.15
2023-12-27T21:26:06.035Z,970.07
2023-12-27T21:31:18.221Z,970.11
2023-12-27T21:36:30.768Z,970.08
2023-12-27T21:41:42.949Z,969.91
2023-12-27T21:46:55.058Z,969.98
2023-12-27T21:52:07.085Z,970.12
2023-12-27T21:57:19.064Z,970.07
2023-12-27T22:02:31.099Z,970.21
2023-12-27T22:07:43.755Z,970.18
2023-12-27T22:12:55.886Z,970.22
2023-12-27T22:18:08.463Z,970.21
2023-12-27T22:18:20.486Z,970.17
2023-12-27T22:23:32.702Z,970.32
2023-12-27T22:28:44.666Z,970.31
2023-12-27T22:33:56.704Z,970.3
2023-12-27T22:39:09.169Z,970.23
2023-12-27T22:44:21.207Z,970.11
2023-12-27T22:49:33.311Z,970.1
2023-12-27T22:54:45.710Z,970.11
2023-12-27T22:59:57.874Z,970.05
2023-12-27T23:05:10.032Z,970.16
2023-12-27T23:10:22.133Z,970.15
2023-12-27T23:15:34.530Z,970.14
2023-12-27T23:20:46.505Z,970.31
2023-12-27T23:25:58.586Z,970.28
2023-12-27T23:31:10.831Z,970.35
2023-12-27T23:36:23.166Z,970.36
2023-12-27T23:41:35.146Z,970.44
2023-12-27T23:46:47.250Z,970.36
2023-12-27T23:51:59.371Z,970.43
2023-12-27T23:57:11.357Z,970.55
